sensor_id;sensor_type;location;lat;lon;timestamp;temperature;humidity
39957;DHT22;48483;44.640;7.494;2022-08-21T00:02:14;23.90;91.00
39957;DHT22;48483;44.640;7.494;2022-08-21T00:04:40;23.90;91.10
39957;DHT22;48483;44.640;7.494;2022-08-21T00:07:07;23.90;90.90
39957;DHT22;48483;44.640;7.494;2022-08-21T00:09:34;23.90;90.90
39957;DHT22;48483;44.640;7.494;2022-08-21T00:12:00;23.90;90.90
39957;DHT22;48483;44.640;7.494;2022-08-21T00:14:29;23.80;91.20
39957;DHT22;48483;44.640;7.494;2022-08-21T00:16:55;23.80;91.20
39957;DHT22;48483;44.640;7.494;2022-08-21T00:19:22;23.80;91.20
39957;DHT22;48483;44.640;7.494;2022-08-21T00:21:51;23.80;91.20
39957;DHT22;48483;44.640;7.494;2022-08-21T00:24:18;23.80;91.20
39957;DHT22;48483;44.640;7.494;2022-08-21T00:26:45;23.70;91.50
39957;DHT22;48483;44.640;7.494;2022-08-21T00:29:13;23.80;91.40
39957;DHT22;48483;44.640;7.494;2022-08-21T00:31:42;23.70;91.40
39957;DHT22;48483;44.640;7.494;2022-08-21T00:34:10;23.70;91.50
39957;DHT22;48483;44.640;7.494;2022-08-21T00:36:37;23.70;91.80
39957;DHT22;48483;44.640;7.494;2022-08-21T00:39:05;23.60;91.80
39957;DHT22;48483;44.640;7.494;2022-08-21T00:41:33;23.60;92.00
39957;DHT22;48483;44.640;7.494;2022-08-21T00:44:00;23.60;92.20
39957;DHT22;48483;44.640;7.494;2022-08-21T00:46:27;23.60;92.50
39957;DHT22;48483;44.640;7.494;2022-08-21T00:48:55;23.60;92.70
39957;DHT22;48483;44.640;7.494;2022-08-21T00:51:27;23.50;92.80
39957;DHT22;48483;44.640;7.494;2022-08-21T00:53:57;23.50;92.80
39957;DHT22;48483;44.640;7.494;2022-08-21T00:56:26;23.60;92.40
39957;DHT22;48483;44.640;7.494;2022-08-21T00:58:56;23.60;92.60
39957;DHT22;48483;44.640;7.494;2022-08-21T01:01:24;23.50;92.10
39957;DHT22;48483;44.640;7.494;2022-08-21T01:03:51;23.50;92.20
39957;DHT22;48483;44.640;7.494;2022-08-21T01:06:19;23.50;92.20
39957;DHT22;48483;44.640;7.494;2022-08-21T01:08:46;23.40;92.30
39957;DHT22;48483;44.640;7.494;2022-08-21T01:11:14;23.40;92.60
39957;DHT22;48483;44.640;7.494;2022-08-21T01:13:42;23.40;93.10
39957;DHT22;48483;44.640;7.494;2022-08-21T01:16:15;23.40;93.40
39957;DHT22;48483;44.640;7.494;2022-08-21T01:18:43;23.30;93.50
39957;DHT22;48483;44.640;7.494;2022-08-21T01:21:13;23.30;94.00
39957;DHT22;48483;44.640;7.494;2022-08-21T01:23:44;23.30;94.30
39957;DHT22;48483;44.640;7.494;2022-08-21T01:26:12;23.30;94.50
39957;DHT22;48483;44.640;7.494;2022-08-21T01:28:42;23.30;94.50
39957;DHT22;48483;44.640;7.494;2022-08-21T01:31:12;23.30;94.40
39957;DHT22;48483;44.640;7.494;2022-08-21T01:33:40;23.30;94.30
39957;DHT22;48483;44.640;7.494;2022-08-21T01:36:07;23.20;94.30
39957;DHT22;48483;44.640;7.494;2022-08-21T01:38:35;23.20;94.00
39957;DHT22;48483;44.640;7.494;2022-08-21T01:41:02;23.20;93.30
39957;DHT22;48483;44.640;7.494;2022-08-21T01:43:29;23.20;92.30
39957;DHT22;48483;44.640;7.494;2022-08-21T01:45:55;23.20;92.30
39957;DHT22;48483;44.640;7.494;2022-08-21T01:48:22;23.30;91.50
39957;DHT22;48483;44.640;7.494;2022-08-21T01:50:49;23.30;91.10
39957;DHT22;48483;44.640;7.494;2022-08-21T01:53:16;23.30;90.70
39957;DHT22;48483;44.640;7.494;2022-08-21T01:55:44;23.40;90.40
39957;DHT22;48483;44.640;7.494;2022-08-21T01:58:11;23.40;90.20
39957;DHT22;48483;44.640;7.494;2022-08-21T02:00:38;23.40;90.00
39957;DHT22;48483;44.640;7.494;2022-08-21T02:03:05;23.40;89.80
39957;DHT22;48483;44.640;7.494;2022-08-21T02:05:32;23.50;89.30
39957;DHT22;48483;44.640;7.494;2022-08-21T02:07:58;23.50;88.70
39957;DHT22;48483;44.640;7.494;2022-08-21T02:10:28;23.50;88.20
39957;DHT22;48483;44.640;7.494;2022-08-21T02:12:58;23.50;87.80
39957;DHT22;48483;44.640;7.494;2022-08-21T02:15:26;23.50;87.30
39957;DHT22;48483;44.640;7.494;2022-08-21T02:17:55;23.50;87.00
39957;DHT22;48483;44.640;7.494;2022-08-21T02:20:27;23.60;86.70
39957;DHT22;48483;44.640;7.494;2022-08-21T02:22:54;23.50;86.40
39957;DHT22;48483;44.640;7.494;2022-08-21T02:25:22;23.60;86.50
39957;DHT22;48483;44.640;7.494;2022-08-21T02:27:50;23.50;86.10
39957;DHT22;48483;44.640;7.494;2022-08-21T02:30:20;23.60;85.90
39957;DHT22;48483;44.640;7.494;2022-08-21T02:32:48;23.60;85.90
39957;DHT22;48483;44.640;7.494;2022-08-21T02:35:15;23.60;85.30
39957;DHT22;48483;44.640;7.494;2022-08-21T02:37:47;23.50;85.40
39957;DHT22;48483;44.640;7.494;2022-08-21T02:40:15;23.50;85.40
39957;DHT22;48483;44.640;7.494;2022-08-21T02:42:42;23.50;85.30
39957;DHT22;48483;44.640;7.494;2022-08-21T02:45:10;23.60;85.30
39957;DHT22;48483;44.640;7.494;2022-08-21T02:47:39;23.60;84.90
39957;DHT22;48483;44.640;7.494;2022-08-21T02:50:06;23.50;84.70
39957;DHT22;48483;44.640;7.494;2022-08-21T02:52:33;23.50;84.80
39957;DHT22;48483;44.640;7.494;2022-08-21T02:55:00;23.50;84.60
39957;DHT22;48483;44.640;7.494;2022-08-21T02:57:27;23.50;84.50
39957;DHT22;48483;44.640;7.494;2022-08-21T02:59:54;23.50;84.40
39957;DHT22;48483;44.640;7.494;2022-08-21T03:02:20;23.50;84.50
39957;DHT22;48483;44.640;7.494;2022-08-21T03:04:49;23.50;84.80
39957;DHT22;48483;44.640;7.494;2022-08-21T03:07:16;23.50;84.60
39957;DHT22;48483;44.640;7.494;2022-08-21T03:09:42;23.50;84.80
39957;DHT22;48483;44.640;7.494;2022-08-21T03:12:09;23.50;84.90
39957;DHT22;48483;44.640;7.494;2022-08-21T03:14:36;23.50;85.20
39957;DHT22;48483;44.640;7.494;2022-08-21T03:17:04;23.50;85.50
39957;DHT22;48483;44.640;7.494;2022-08-21T03:19:31;23.50;85.60
39957;DHT22;48483;44.640;7.494;2022-08-21T03:21:59;23.50;85.40
39957;DHT22;48483;44.640;7.494;2022-08-21T03:24:26;23.50;85.70
39957;DHT22;48483;44.640;7.494;2022-08-21T03:26:52;23.50;85.70
39957;DHT22;48483;44.640;7.494;2022-08-21T03:29:19;23.50;86.10
39957;DHT22;48483;44.640;7.494;2022-08-21T03:31:46;23.50;85.90
39957;DHT22;48483;44.640;7.494;2022-08-21T03:34:13;23.50;86.10
39957;DHT22;48483;44.640;7.494;2022-08-21T03:36:40;23.50;88.30
39957;DHT22;48483;44.640;7.494;2022-08-21T03:39:08;23.30;90.30
39957;DHT22;48483;44.640;7.494;2022-08-21T03:41:35;23.30;90.90
39957;DHT22;48483;44.640;7.494;2022-08-21T03:44:02;23.20;91.30
39957;DHT22;48483;44.640;7.494;2022-08-21T03:46:28;23.10;91.70
39957;DHT22;48483;44.640;7.494;2022-08-21T03:48:55;23.10;92.10
39957;DHT22;48483;44.640;7.494;2022-08-21T03:51:22;23.10;92.40
39957;DHT22;48483;44.640;7.494;2022-08-21T03:53:49;23.00;93.20
39957;DHT22;48483;44.640;7.494;2022-08-21T03:56:17;22.90;93.80
39957;DHT22;48483;44.640;7.494;2022-08-21T03:58:43;22.90;94.30
39957;DHT22;48483;44.640;7.494;2022-08-21T04:01:11;22.80;94.10
39957;DHT22;48483;44.640;7.494;2022-08-21T04:03:38;22.70;94.70
39957;DHT22;48483;44.640;7.494;2022-08-21T04:06:06;22.70;95.00
39957;DHT22;48483;44.640;7.494;2022-08-21T04:08:34;22.70;94.70
39957;DHT22;48483;44.640;7.494;2022-08-21T04:11:01;22.70;94.80
39957;DHT22;48483;44.640;7.494;2022-08-21T04:13:29;22.70;94.60
39957;DHT22;48483;44.640;7.494;2022-08-21T04:15:56;22.60;95.30
39957;DHT22;48483;44.640;7.494;2022-08-21T04:18:24;22.60;95.90
39957;DHT22;48483;44.640;7.494;2022-08-21T04:20:52;22.50;96.10
39957;DHT22;48483;44.640;7.494;2022-08-21T04:23:21;22.50;96.30
39957;DHT22;48483;44.640;7.494;2022-08-21T04:25:48;22.50;96.30
39957;DHT22;48483;44.640;7.494;2022-08-21T04:28:15;22.40;96.60
39957;DHT22;48483;44.640;7.494;2022-08-21T04:30:43;22.40;96.90
39957;DHT22;48483;44.640;7.494;2022-08-21T04:33:10;22.40;97.40
39957;DHT22;48483;44.640;7.494;2022-08-21T04:35:36;22.30;97.60
39957;DHT22;48483;44.640;7.494;2022-08-21T04:38:03;22.30;98.10
39957;DHT22;48483;44.640;7.494;2022-08-21T04:40:30;22.30;98.20
39957;DHT22;48483;44.640;7.494;2022-08-21T04:43:00;22.30;98.40
39957;DHT22;48483;44.640;7.494;2022-08-21T04:45:28;22.30;98.40
39957;DHT22;48483;44.640;7.494;2022-08-21T04:47:59;22.30;98.70
39957;DHT22;48483;44.640;7.494;2022-08-21T04:50:29;22.20;98.90
39957;DHT22;48483;44.640;7.494;2022-08-21T04:53:08;22.20;99.00
39957;DHT22;48483;44.640;7.494;2022-08-21T04:55:36;22.20;99.10
39957;DHT22;48483;44.640;7.494;2022-08-21T04:58:04;22.20;99.20
39957;DHT22;48483;44.640;7.494;2022-08-21T05:00:31;22.30;99.30
39957;DHT22;48483;44.640;7.494;2022-08-21T05:03:00;22.20;99.40
39957;DHT22;48483;44.640;7.494;2022-08-21T05:05:27;22.20;99.40
39957;DHT22;48483;44.640;7.494;2022-08-21T05:07:55;22.20;99.10
39957;DHT22;48483;44.640;7.494;2022-08-21T05:10:23;22.20;98.90
39957;DHT22;48483;44.640;7.494;2022-08-21T05:12:49;22.10;99.00
39957;DHT22;48483;44.640;7.494;2022-08-21T05:15:16;22.10;99.30
39957;DHT22;48483;44.640;7.494;2022-08-21T05:17:43;22.10;99.50
39957;DHT22;48483;44.640;7.494;2022-08-21T05:20:13;22.10;99.50
39957;DHT22;48483;44.640;7.494;2022-08-21T05:22:40;22.10;99.50
39957;DHT22;48483;44.640;7.494;2022-08-21T05:25:08;22.20;99.70
39957;DHT22;48483;44.640;7.494;2022-08-21T05:27:35;22.20;99.80
39957;DHT22;48483;44.640;7.494;2022-08-21T05:30:03;22.20;99.70
39957;DHT22;48483;44.640;7.494;2022-08-21T05:32:31;22.20;99.70
39957;DHT22;48483;44.640;7.494;2022-08-21T05:34:58;22.20;99.90
39957;DHT22;48483;44.640;7.494;2022-08-21T05:37:26;22.20;99.90
39957;DHT22;48483;44.640;7.494;2022-08-21T05:39:52;22.20;99.90
39957;DHT22;48483;44.640;7.494;2022-08-21T05:42:19;22.30;99.90
39957;DHT22;48483;44.640;7.494;2022-08-21T05:44:46;22.30;99.90
39957;DHT22;48483;44.640;7.494;2022-08-21T05:47:14;22.30;99.90
39957;DHT22;48483;44.640;7.494;2022-08-21T05:49:41;22.30;99.90
39957;DHT22;48483;44.640;7.494;2022-08-21T05:52:07;22.30;99.90
39957;DHT22;48483;44.640;7.494;2022-08-21T05:54:37;22.30;99.90
39957;DHT22;48483;44.640;7.494;2022-08-21T05:57:04;22.30;99.90
39957;DHT22;48483;44.640;7.494;2022-08-21T05:59:30;22.40;99.90
39957;DHT22;48483;44.640;7.494;2022-08-21T06:01:57;22.40;99.90
39957;DHT22;48483;44.640;7.494;2022-08-21T06:04:24;22.50;99.90
39957;DHT22;48483;44.640;7.494;2022-08-21T06:06:50;22.50;99.90
39957;DHT22;48483;44.640;7.494;2022-08-21T06:09:17;22.50;99.90
39957;DHT22;48483;44.640;7.494;2022-08-21T06:11:45;22.60;99.90
39957;DHT22;48483;44.640;7.494;2022-08-21T06:14:13;22.70;99.90
39957;DHT22;48483;44.640;7.494;2022-08-21T06:16:40;22.70;99.90
39957;DHT22;48483;44.640;7.494;2022-08-21T06:19:07;22.70;99.90
39957;DHT22;48483;44.640;7.494;2022-08-21T06:21:33;22.80;99.90
39957;DHT22;48483;44.640;7.494;2022-08-21T06:24:00;22.90;99.90
39957;DHT22;48483;44.640;7.494;2022-08-21T06:26:27;23.00;99.90
39957;DHT22;48483;44.640;7.494;2022-08-21T06:28:56;23.10;99.90
39957;DHT22;48483;44.640;7.494;2022-08-21T06:31:25;23.20;99.90
39957;DHT22;48483;44.640;7.494;2022-08-21T06:33:52;23.30;99.90
39957;DHT22;48483;44.640;7.494;2022-08-21T06:36:20;23.40;99.90
39957;DHT22;48483;44.640;7.494;2022-08-21T06:38:47;23.60;99.90
39957;DHT22;48483;44.640;7.494;2022-08-21T06:41:14;23.60;98.80
39957;DHT22;48483;44.640;7.494;2022-08-21T06:43:40;23.70;98.60
39957;DHT22;48483;44.640;7.494;2022-08-21T06:46:08;23.90;98.40
39957;DHT22;48483;44.640;7.494;2022-08-21T06:48:35;23.90;97.90
39957;DHT22;48483;44.640;7.494;2022-08-21T06:51:02;24.00;98.20
39957;DHT22;48483;44.640;7.494;2022-08-21T06:53:29;24.10;98.10
39957;DHT22;48483;44.640;7.494;2022-08-21T06:55:56;24.30;98.40
39957;DHT22;48483;44.640;7.494;2022-08-21T06:58:23;24.40;98.70
39957;DHT22;48483;44.640;7.494;2022-08-21T07:00:50;24.50;98.70
39957;DHT22;48483;44.640;7.494;2022-08-21T07:03:21;24.50;98.20
39957;DHT22;48483;44.640;7.494;2022-08-21T07:05:48;24.60;98.00
39957;DHT22;48483;44.640;7.494;2022-08-21T07:08:15;24.80;97.70
39957;DHT22;48483;44.640;7.494;2022-08-21T07:10:43;25.00;96.80
39957;DHT22;48483;44.640;7.494;2022-08-21T07:13:09;25.00;95.00
39957;DHT22;48483;44.640;7.494;2022-08-21T07:15:36;25.10;94.60
39957;DHT22;48483;44.640;7.494;2022-08-21T07:18:03;25.10;93.20
39957;DHT22;48483;44.640;7.494;2022-08-21T07:20:32;25.20;89.90
39957;DHT22;48483;44.640;7.494;2022-08-21T07:23:01;25.30;89.80
39957;DHT22;48483;44.640;7.494;2022-08-21T07:25:28;25.20;87.70
39957;DHT22;48483;44.640;7.494;2022-08-21T07:27:55;25.20;88.30
39957;DHT22;48483;44.640;7.494;2022-08-21T07:30:22;25.20;88.20
39957;DHT22;48483;44.640;7.494;2022-08-21T07:32:49;25.20;88.20
39957;DHT22;48483;44.640;7.494;2022-08-21T07:35:16;25.20;89.40
39957;DHT22;48483;44.640;7.494;2022-08-21T07:37:44;25.20;88.80
39957;DHT22;48483;44.640;7.494;2022-08-21T07:40:11;25.30;89.70
39957;DHT22;48483;44.640;7.494;2022-08-21T07:42:40;25.30;88.20
39957;DHT22;48483;44.640;7.494;2022-08-21T07:45:08;25.30;88.80
39957;DHT22;48483;44.640;7.494;2022-08-21T07:47:35;25.40;88.50
39957;DHT22;48483;44.640;7.494;2022-08-21T07:50:03;25.50;90.30
39957;DHT22;48483;44.640;7.494;2022-08-21T07:52:30;25.50;90.40
39957;DHT22;48483;44.640;7.494;2022-08-21T07:54:58;25.60;88.70
39957;DHT22;48483;44.640;7.494;2022-08-21T07:57:25;25.60;88.30
39957;DHT22;48483;44.640;7.494;2022-08-21T07:59:51;25.60;86.70
39957;DHT22;48483;44.640;7.494;2022-08-21T08:02:25;25.70;86.60
39957;DHT22;48483;44.640;7.494;2022-08-21T08:04:52;25.80;87.50
39957;DHT22;48483;44.640;7.494;2022-08-21T08:07:19;25.90;86.30
39957;DHT22;48483;44.640;7.494;2022-08-21T08:09:46;26.00;85.90
39957;DHT22;48483;44.640;7.494;2022-08-21T08:12:14;26.20;83.90
39957;DHT22;48483;44.640;7.494;2022-08-21T08:14:41;26.30;82.40
39957;DHT22;48483;44.640;7.494;2022-08-21T08:17:07;26.30;82.20
39957;DHT22;48483;44.640;7.494;2022-08-21T08:19:34;26.40;82.20
39957;DHT22;48483;44.640;7.494;2022-08-21T08:22:01;26.50;82.50
39957;DHT22;48483;44.640;7.494;2022-08-21T08:24:28;26.50;83.30
39957;DHT22;48483;44.640;7.494;2022-08-21T08:26:55;26.50;83.30
39957;DHT22;48483;44.640;7.494;2022-08-21T08:29:24;26.60;80.00
39957;DHT22;48483;44.640;7.494;2022-08-21T08:31:51;26.70;74.10
39957;DHT22;48483;44.640;7.494;2022-08-21T08:34:18;26.70;73.70
39957;DHT22;48483;44.640;7.494;2022-08-21T08:36:45;26.70;75.80
39957;DHT22;48483;44.640;7.494;2022-08-21T08:39:12;26.80;76.70
39957;DHT22;48483;44.640;7.494;2022-08-21T08:41:40;26.90;75.60
39957;DHT22;48483;44.640;7.494;2022-08-21T08:44:07;27.00;76.50
39957;DHT22;48483;44.640;7.494;2022-08-21T08:46:39;27.00;76.40
39957;DHT22;48483;44.640;7.494;2022-08-21T08:49:11;27.00;76.50
39957;DHT22;48483;44.640;7.494;2022-08-21T08:51:49;27.10;77.10
39957;DHT22;48483;44.640;7.494;2022-08-21T08:54:24;27.20;77.70
39957;DHT22;48483;44.640;7.494;2022-08-21T08:56:52;27.30;77.60
39957;DHT22;48483;44.640;7.494;2022-08-21T08:59:25;27.30;78.10
39957;DHT22;48483;44.640;7.494;2022-08-21T09:01:55;27.40;75.20
39957;DHT22;48483;44.640;7.494;2022-08-21T09:04:24;27.50;75.20
39957;DHT22;48483;44.640;7.494;2022-08-21T09:07:01;27.40;69.00
39957;DHT22;48483;44.640;7.494;2022-08-21T09:09:42;27.50;70.20
39957;DHT22;48483;44.640;7.494;2022-08-21T09:12:18;27.50;68.60
39957;DHT22;48483;44.640;7.494;2022-08-21T09:15:00;27.50;69.00
39957;DHT22;48483;44.640;7.494;2022-08-21T09:17:41;27.60;67.90
39957;DHT22;48483;44.640;7.494;2022-08-21T09:20:29;27.70;67.10
39957;DHT22;48483;44.640;7.494;2022-08-21T09:23:10;27.70;67.10
39957;DHT22;48483;44.640;7.494;2022-08-21T09:25:42;27.70;65.90
39957;DHT22;48483;44.640;7.494;2022-08-21T09:28:12;27.80;66.70
39957;DHT22;48483;44.640;7.494;2022-08-21T09:30:41;27.80;65.60
39957;DHT22;48483;44.640;7.494;2022-08-21T09:33:09;27.70;65.60
39957;DHT22;48483;44.640;7.494;2022-08-21T09:35:48;27.80;65.00
39957;DHT22;48483;44.640;7.494;2022-08-21T09:38:25;27.70;64.20
39957;DHT22;48483;44.640;7.494;2022-08-21T09:40:58;27.70;65.60
39957;DHT22;48483;44.640;7.494;2022-08-21T09:43:24;27.80;66.00
39957;DHT22;48483;44.640;7.494;2022-08-21T09:46:03;27.90;66.60
39957;DHT22;48483;44.640;7.494;2022-08-21T09:48:39;27.90;67.90
39957;DHT22;48483;44.640;7.494;2022-08-21T09:51:08;27.90;66.30
39957;DHT22;48483;44.640;7.494;2022-08-21T09:53:39;27.90;65.80
39957;DHT22;48483;44.640;7.494;2022-08-21T09:56:18;28.00;62.00
39957;DHT22;48483;44.640;7.494;2022-08-21T09:59:17;28.00;60.60
39957;DHT22;48483;44.640;7.494;2022-08-21T10:01:45;28.10;61.40
39957;DHT22;48483;44.640;7.494;2022-08-21T10:04:14;28.10;61.90
39957;DHT22;48483;44.640;7.494;2022-08-21T10:06:41;28.10;62.30
39957;DHT22;48483;44.640;7.494;2022-08-21T10:09:10;28.10;61.20
39957;DHT22;48483;44.640;7.494;2022-08-21T10:11:38;28.20;60.00
39957;DHT22;48483;44.640;7.494;2022-08-21T10:17:00;28.20;58.90
39957;DHT22;48483;44.640;7.494;2022-08-21T10:19:40;28.10;59.30
39957;DHT22;48483;44.640;7.494;2022-08-21T10:22:18;28.20;58.60
39957;DHT22;48483;44.640;7.494;2022-08-21T10:24:51;28.30;58.10
39957;DHT22;48483;44.640;7.494;2022-08-21T10:27:24;28.30;57.40
39957;DHT22;48483;44.640;7.494;2022-08-21T10:29:56;28.30;57.50
39957;DHT22;48483;44.640;7.494;2022-08-21T10:32:43;28.30;57.50
39957;DHT22;48483;44.640;7.494;2022-08-21T10:35:22;28.40;57.60
39957;DHT22;48483;44.640;7.494;2022-08-21T10:38:00;28.30;57.90
39957;DHT22;48483;44.640;7.494;2022-08-21T10:40:33;28.40;57.50
39957;DHT22;48483;44.640;7.494;2022-08-21T10:43:09;28.50;57.00
39957;DHT22;48483;44.640;7.494;2022-08-21T10:45:45;28.50;57.30
39957;DHT22;48483;44.640;7.494;2022-08-21T10:48:22;28.50;53.50
39957;DHT22;48483;44.640;7.494;2022-08-21T10:50:55;28.50;54.40
39957;DHT22;48483;44.640;7.494;2022-08-21T10:53:39;28.60;54.40
39957;DHT22;48483;44.640;7.494;2022-08-21T10:56:14;28.70;52.60
39957;DHT22;48483;44.640;7.494;2022-08-21T10:58:48;28.70;53.10
39957;DHT22;48483;44.640;7.494;2022-08-21T11:01:24;28.70;52.30
39957;DHT22;48483;44.640;7.494;2022-08-21T11:04:03;28.70;52.70
39957;DHT22;48483;44.640;7.494;2022-08-21T11:06:32;28.70;53.80
39957;DHT22;48483;44.640;7.494;2022-08-21T11:09:07;28.80;54.30
39957;DHT22;48483;44.640;7.494;2022-08-21T11:11:39;28.80;55.00
39957;DHT22;48483;44.640;7.494;2022-08-21T11:14:13;28.90;55.30
39957;DHT22;48483;44.640;7.494;2022-08-21T11:16:45;28.80;54.90
39957;DHT22;48483;44.640;7.494;2022-08-21T11:19:13;28.80;54.70
39957;DHT22;48483;44.640;7.494;2022-08-21T11:21:46;28.80;54.80
39957;DHT22;48483;44.640;7.494;2022-08-21T11:24:24;28.90;54.90
39957;DHT22;48483;44.640;7.494;2022-08-21T11:26:59;28.90;54.70
39957;DHT22;48483;44.640;7.494;2022-08-21T11:29:29;28.90;54.90
39957;DHT22;48483;44.640;7.494;2022-08-21T11:32:10;28.90;55.80
39957;DHT22;48483;44.640;7.494;2022-08-21T11:34:54;29.00;54.60
39957;DHT22;48483;44.640;7.494;2022-08-21T11:37:39;28.90;54.00
39957;DHT22;48483;44.640;7.494;2022-08-21T11:40:12;28.90;54.20
39957;DHT22;48483;44.640;7.494;2022-08-21T11:42:48;28.90;54.00
39957;DHT22;48483;44.640;7.494;2022-08-21T11:45:24;28.90;54.30
39957;DHT22;48483;44.640;7.494;2022-08-21T11:47:58;28.90;54.30
39957;DHT22;48483;44.640;7.494;2022-08-21T11:50:31;28.90;53.10
39957;DHT22;48483;44.640;7.494;2022-08-21T11:53:04;28.80;53.40
39957;DHT22;48483;44.640;7.494;2022-08-21T11:55:38;28.80;54.20
39957;DHT22;48483;44.640;7.494;2022-08-21T11:58:11;28.90;54.40
39957;DHT22;48483;44.640;7.494;2022-08-21T12:00:43;29.00;54.00
39957;DHT22;48483;44.640;7.494;2022-08-21T12:03:13;29.10;54.20
39957;DHT22;48483;44.640;7.494;2022-08-21T12:05:43;29.10;53.80
39957;DHT22;48483;44.640;7.494;2022-08-21T12:08:14;29.10;53.60
39957;DHT22;48483;44.640;7.494;2022-08-21T12:11:01;29.10;53.60
39957;DHT22;48483;44.640;7.494;2022-08-21T12:13:30;29.10;53.80
39957;DHT22;48483;44.640;7.494;2022-08-21T12:16:05;29.20;54.50
39957;DHT22;48483;44.640;7.494;2022-08-21T12:18:33;29.20;53.80
39957;DHT22;48483;44.640;7.494;2022-08-21T12:21:04;29.20;53.60
39957;DHT22;48483;44.640;7.494;2022-08-21T12:23:42;29.20;52.10
39957;DHT22;48483;44.640;7.494;2022-08-21T12:26:26;29.20;51.90
39957;DHT22;48483;44.640;7.494;2022-08-21T12:29:09;29.20;51.70
39957;DHT22;48483;44.640;7.494;2022-08-21T12:31:49;29.20;50.40
39957;DHT22;48483;44.640;7.494;2022-08-21T12:34:15;29.20;50.30
39957;DHT22;48483;44.640;7.494;2022-08-21T12:36:44;29.20;50.70
39957;DHT22;48483;44.640;7.494;2022-08-21T12:39:17;29.20;50.40
39957;DHT22;48483;44.640;7.494;2022-08-21T12:41:48;29.20;50.40
39957;DHT22;48483;44.640;7.494;2022-08-21T12:44:21;29.20;50.70
39957;DHT22;48483;44.640;7.494;2022-08-21T12:46:57;29.30;49.80
39957;DHT22;48483;44.640;7.494;2022-08-21T12:49:28;29.30;49.60
39957;DHT22;48483;44.640;7.494;2022-08-21T12:52:01;29.30;49.60
39957;DHT22;48483;44.640;7.494;2022-08-21T12:54:32;29.40;50.00
39957;DHT22;48483;44.640;7.494;2022-08-21T12:57:05;29.40;49.80
39957;DHT22;48483;44.640;7.494;2022-08-21T12:59:37;29.40;49.30
39957;DHT22;48483;44.640;7.494;2022-08-21T13:02:11;29.30;49.30
39957;DHT22;48483;44.640;7.494;2022-08-21T13:04:41;29.40;49.90
39957;DHT22;48483;44.640;7.494;2022-08-21T13:07:10;29.40;49.50
39957;DHT22;48483;44.640;7.494;2022-08-21T13:09:42;29.50;49.40
39957;DHT22;48483;44.640;7.494;2022-08-21T13:12:10;29.40;49.40
39957;DHT22;48483;44.640;7.494;2022-08-21T13:14:40;29.30;49.30
39957;DHT22;48483;44.640;7.494;2022-08-21T13:17:08;29.40;49.40
39957;DHT22;48483;44.640;7.494;2022-08-21T13:19:36;29.40;48.50
39957;DHT22;48483;44.640;7.494;2022-08-21T13:22:03;29.30;48.50
39957;DHT22;48483;44.640;7.494;2022-08-21T13:24:38;29.30;48.40
39957;DHT22;48483;44.640;7.494;2022-08-21T13:27:18;29.40;47.70
39957;DHT22;48483;44.640;7.494;2022-08-21T13:29:46;29.40;47.30
39957;DHT22;48483;44.640;7.494;2022-08-21T13:32:21;29.30;48.40
39957;DHT22;48483;44.640;7.494;2022-08-21T13:34:50;29.20;48.10
39957;DHT22;48483;44.640;7.494;2022-08-21T13:37:18;29.20;48.00
39957;DHT22;48483;44.640;7.494;2022-08-21T13:39:49;29.30;48.70
39957;DHT22;48483;44.640;7.494;2022-08-21T13:42:19;29.30;48.30
39957;DHT22;48483;44.640;7.494;2022-08-21T13:44:47;29.30;47.40
39957;DHT22;48483;44.640;7.494;2022-08-21T13:47:15;29.30;48.10
39957;DHT22;48483;44.640;7.494;2022-08-21T13:49:44;29.40;47.70
39957;DHT22;48483;44.640;7.494;2022-08-21T13:52:15;29.40;47.60
39957;DHT22;48483;44.640;7.494;2022-08-21T13:54:42;29.40;48.00
39957;DHT22;48483;44.640;7.494;2022-08-21T13:57:20;29.40;48.10
39957;DHT22;48483;44.640;7.494;2022-08-21T13:59:50;29.40;48.00
39957;DHT22;48483;44.640;7.494;2022-08-21T14:02:19;29.40;47.60
39957;DHT22;48483;44.640;7.494;2022-08-21T14:04:51;29.50;47.50
39957;DHT22;48483;44.640;7.494;2022-08-21T14:07:25;29.50;46.60
39957;DHT22;48483;44.640;7.494;2022-08-21T14:09:53;29.40;47.20
39957;DHT22;48483;44.640;7.494;2022-08-21T14:12:27;29.40;47.70
39957;DHT22;48483;44.640;7.494;2022-08-21T14:14:56;29.40;47.90
39957;DHT22;48483;44.640;7.494;2022-08-21T14:17:28;29.40;48.10
39957;DHT22;48483;44.640;7.494;2022-08-21T14:19:55;29.40;48.20
39957;DHT22;48483;44.640;7.494;2022-08-21T14:22:35;29.40;48.30
39957;DHT22;48483;44.640;7.494;2022-08-21T14:25:04;29.40;48.50
39957;DHT22;48483;44.640;7.494;2022-08-21T14:27:35;29.40;48.30
39957;DHT22;48483;44.640;7.494;2022-08-21T14:30:10;29.40;48.60
39957;DHT22;48483;44.640;7.494;2022-08-21T14:32:40;29.50;48.70
39957;DHT22;48483;44.640;7.494;2022-08-21T14:35:07;29.50;49.10
39957;DHT22;48483;44.640;7.494;2022-08-21T14:37:34;29.50;48.40
39957;DHT22;48483;44.640;7.494;2022-08-21T14:40:02;29.40;48.80
39957;DHT22;48483;44.640;7.494;2022-08-21T14:42:29;29.50;48.90
39957;DHT22;48483;44.640;7.494;2022-08-21T14:45:00;29.50;49.20
39957;DHT22;48483;44.640;7.494;2022-08-21T14:47:28;29.40;49.20
39957;DHT22;48483;44.640;7.494;2022-08-21T14:49:55;29.40;49.30
39957;DHT22;48483;44.640;7.494;2022-08-21T14:52:21;29.40;49.70
39957;DHT22;48483;44.640;7.494;2022-08-21T14:54:50;29.40;50.30
39957;DHT22;48483;44.640;7.494;2022-08-21T14:57:17;29.30;50.70
39957;DHT22;48483;44.640;7.494;2022-08-21T14:59:43;29.40;50.40
39957;DHT22;48483;44.640;7.494;2022-08-21T15:02:11;29.40;50.60
39957;DHT22;48483;44.640;7.494;2022-08-21T15:04:38;29.40;51.20
39957;DHT22;48483;44.640;7.494;2022-08-21T15:07:05;29.40;51.20
39957;DHT22;48483;44.640;7.494;2022-08-21T15:09:32;29.40;51.90
39957;DHT22;48483;44.640;7.494;2022-08-21T15:12:00;29.40;51.80
39957;DHT22;48483;44.640;7.494;2022-08-21T15:14:29;29.40;51.80
39957;DHT22;48483;44.640;7.494;2022-08-21T15:16:57;29.40;51.90
39957;DHT22;48483;44.640;7.494;2022-08-21T15:19:25;29.30;51.50
39957;DHT22;48483;44.640;7.494;2022-08-21T15:21:52;29.30;51.90
39957;DHT22;48483;44.640;7.494;2022-08-21T15:24:19;29.30;51.80
39957;DHT22;48483;44.640;7.494;2022-08-21T15:26:46;29.30;52.10
39957;DHT22;48483;44.640;7.494;2022-08-21T15:29:13;29.30;52.50
39957;DHT22;48483;44.640;7.494;2022-08-21T15:31:54;29.30;52.60
39957;DHT22;48483;44.640;7.494;2022-08-21T15:34:21;29.20;52.70
39957;DHT22;48483;44.640;7.494;2022-08-21T15:36:49;29.30;52.70
39957;DHT22;48483;44.640;7.494;2022-08-21T15:39:16;29.30;51.90
39957;DHT22;48483;44.640;7.494;2022-08-21T15:41:44;29.20;52.00
39957;DHT22;48483;44.640;7.494;2022-08-21T15:44:12;29.20;52.40
39957;DHT22;48483;44.640;7.494;2022-08-21T15:46:39;29.20;52.80
39957;DHT22;48483;44.640;7.494;2022-08-21T15:49:06;29.20;52.90